• Join FlightAware (Why Join?)
  • Login
  • US Flag 
03:07AM EDT


 

Airport Tracker/Info


-or-


 

Live Flight TrackerFlight Track Log ✈ N717AH ✈ 06-Aug-2013 ✈ KUNV - KCHS

Flight Track Log - Related Links

Times and Time Zones

All times are in EDT time to prevent confusion due to time zone crossing. See the N717AH flight status page for this flight to view local times or setup timezone preferences in your user account.

Time Position Orientation Groundspeed Altitude Reporting Facility
EDT Latitude Longitude Course Direction KTS MPH feet Rate Location/Type
09:15AM 40.8167 -77.8817 201° Southwest 175 201 2,600  Level New York Center
09:16AM 40.7847 -77.8919 194° South 156 180 3,300 720 Climbing New York Center
09:17AM 40.7425 -77.9056 194° South 125 144 4,400 780 Climbing Cleveland Center
09:18AM 40.7114 -77.9150 193° South 119 137 5,200 780 Climbing Cleveland Center
09:19AM 40.5644 -77.9360 191° South  Level Estimated
09:19AM 40.6803 -77.9217 189° South 119 137 6,000  Level Cleveland Center
09:20AM 40.5169 -77.9505 201° Southwest  Level Estimated
09:20AM 40.6472 -77.9342 196° South 124 143 6,700  Level Cleveland Center
09:21AM 40.6119 -77.9436 191° South 124 143 7,400 600 Climbing Cleveland Center
09:22AM 40.5747 -77.9561 194° South 124 143 8,000 600 Climbing Cleveland Center
09:23AM 40.5419 -77.9792 208° Southwest 124 143 8,600 600 Climbing Cleveland Center
09:24AM 40.5114 -78.0050 213° Southwest 137 158 9,200 540 Climbing Cleveland Center
09:25AM 40.4806 -78.0336 215° Southwest 137 158 9,700 480 Climbing Cleveland Center
09:26AM 40.4456 -78.0539 204° Southwest 142 163 10,200 420 Climbing Cleveland Center
09:27AM 40.4064 -78.0664 194° South 142 163 10,600 420 Climbing Cleveland Center
09:28AM 40.3692 -78.0786 194° South 142 163 11,100 420 Climbing Cleveland Center
09:29AM 40.3297 -78.0883 191° South 142 163 11,500 420 Climbing Cleveland Center
09:30AM 40.2903 -78.1006 193° South 142 163 12,000 240 Climbing Cleveland Center
09:31AM 40.2489 -78.1103 190° South 142 163 12,000  Level Cleveland Center
09:32AM 40.2075 -78.1228 193° South 147 169 12,000  Level Cleveland Center
09:33AM 40.1617 -78.1353 192° South 157 181 12,000  Level Cleveland Center
09:34AM 40.1203 -78.1478 193° South 157 181 12,000  Level Cleveland Center
09:35AM 40.0769 -78.1628 195° South 163 188 12,000  Level Cleveland Center
09:37AM 39.9775 -78.1881 191° South 159 183 12,000  Level Washington Center
09:38AM 39.9356 -78.2000 192° South 164 189 12,000  Level Washington Center
09:39AM 39.8936 -78.2119 192° South 164 189 12,000 -60 Level Washington Center
09:45AM 39.6400 -78.2850 192° South 159 183 11,900 -60 Descending FlightAware
09:46AM 39.6150 -78.2920 192° South 159 183 11,900  Level FlightAware
09:46AM 39.5920 -78.2990 193° South 159 183 11,900  Level FlightAware
09:47AM 39.5700 -78.3050 192° South 159 183 11,900  Level FlightAware
09:47AM 39.5350 -78.3150 192° South 160 184 11,900  Level FlightAware
09:48AM 39.5100 -78.3220 192° South 161 185 11,900  Level FlightAware
09:49AM 39.4860 -78.3290 193° South 159 183 11,900  Level FlightAware
09:49AM 39.4590 -78.3370 193° South 160 184 11,900  Level FlightAware
09:50AM 39.4330 -78.3440 192° South 160 184 11,900  Level FlightAware
09:50AM 39.4080 -78.3510 192° South 161 185 11,900  Level FlightAware
09:51AM 39.3830 -78.3580 192° South 160 184 11,900  Level FlightAware
09:52AM 39.3570 -78.3660 193° South 160 184 11,900  Level FlightAware
09:52AM 39.3310 -78.3730 192° South 160 184 11,900  Level FlightAware
09:53AM 39.3050 -78.3800 192° South 160 184 11,900  Level FlightAware
09:53AM 39.2800 -78.3880 194° South 162 186 11,900  Level FlightAware
09:54AM 39.2570 -78.3940 191° South 160 184 11,900  Level FlightAware
09:54AM 39.2300 -78.4010 191° South 161 185 11,900  Level FlightAware
09:55AM 39.2030 -78.4090 193° South 160 184 11,900  Level FlightAware
09:56AM 39.1770 -78.4160 192° South 161 185 11,900  Level FlightAware
09:56AM 39.1490 -78.4240 192° South 161 185 11,900  Level FlightAware
09:57AM 39.1270 -78.4300 192° South 161 185 11,900  Level FlightAware
09:58AM 39.0940 -78.4400 193° South 161 185 11,900  Level FlightAware
09:58AM 39.0720 -78.4460 192° South 161 185 11,900  Level FlightAware
09:59AM 39.0470 -78.4530 192° South 161 185 11,900  Level FlightAware
09:59AM 39.0160 -78.4620 193° South 161 185 11,900  Level FlightAware
10:00AM 38.9870 -78.4700 192° South 160 184 11,900  Level FlightAware
10:01AM 38.9600 -78.4770 191° South 160 184 11,900  Level FlightAware
10:01AM 38.9270 -78.4860 192° South 161 185 11,900  Level FlightAware
10:02AM 38.9090 -78.4920 195° South 160 184 11,900  Level FlightAware
10:02AM 38.8860 -78.4980 191° South 161 185 11,900  Level FlightAware
10:03AM 38.8520 -78.5070 192° South 161 185 11,900  Level FlightAware
10:04AM 38.8290 -78.5140 193° South 160 184 11,900  Level FlightAware
10:04AM 38.8030 -78.5210 192° South 160 184 11,900  Level FlightAware
10:05AM 38.7790 -78.5280 193° South 160 184 11,900  Level FlightAware
10:05AM 38.7550 -78.5340 191° South 159 183 11,900  Level FlightAware
10:06AM 38.7280 -78.5420 193° South 158 182 11,900  Level FlightAware
10:07AM 38.6970 -78.5500 191° South 158 182 11,900  Level FlightAware
10:07AM 38.6660 -78.5590 193° South 157 181 11,900  Level FlightAware
10:08AM 38.6420 -78.5660 193° South 159 183 11,900  Level FlightAware
10:09AM 38.6180 -78.5720 191° South 159 183 11,900  Level FlightAware
10:09AM 38.5960 -78.5780 192° South 159 183 11,900  Level FlightAware
10:10AM 38.5740 -78.5840 192° South 159 183 11,900  Level FlightAware
10:12AM 38.4640 -78.6150 192° South 159 183 11,900  Level FlightAware
10:13AM 38.4380 -78.6220 192° South 158 182 11,900  Level FlightAware
10:13AM 38.4110 -78.6290 191° South 159 183 11,900  Level FlightAware
10:14AM 38.3880 -78.6360 193° South 158 182 11,900  Level FlightAware
10:14AM 38.3650 -78.6420 192° South 158 182 11,900  Level FlightAware
10:15AM 38.3500 -78.6460 192° South 158 182 11,900  Level FlightAware
10:16AM 38.3050 -78.6590 193° South 159 183 11,900  Level FlightAware
10:16AM 38.2830 -78.6640 190° South 159 183 11,900  Level FlightAware
10:17AM 38.2610 -78.6700 192° South 159 183 11,900  Level FlightAware
10:19AM 38.1780 -78.6930 192° South 160 184 11,900  Level FlightAware
10:19AM 38.1530 -78.7000 192° South 160 184 11,900  Level FlightAware
10:20AM 38.1310 -78.7060 192° South 160 184 11,900  Level FlightAware
10:20AM 38.1090 -78.7120 192° South 160 184 11,900  Level FlightAware
10:21AM 38.0560 -78.7270 193° South 160 184 11,900  Level FlightAware
10:22AM 38.0320 -78.7330 191° South 160 184 11,900  Level FlightAware
10:23AM 38.0020 -78.7410 192° South 160 184 11,900  Level FlightAware
10:23AM 37.9870 -78.7450 192° South 160 184 11,900  Level FlightAware
10:26AM 37.8410 -78.7850 192° South 165 190 11,900  Level FlightAware
10:27AM 37.8200 -78.7910 193° South 166 191 11,900  Level FlightAware
10:27AM 37.7910 -78.7990 192° South 165 190 11,900  Level FlightAware
10:28AM 37.7620 -78.8070 192° South 165 190 11,900  Level FlightAware
10:28AM 37.7400 -78.8120 190° South 164 189 11,900  Level FlightAware
10:29AM 37.7140 -78.8190 192° South 164 189 11,900  Level FlightAware
10:30AM 37.6910 -78.8240 190° South 164 189 11,900  Level FlightAware
10:33AM 37.5290 -78.8690 192° South 161 185 11,900  Level FlightAware
10:34AM 37.5050 -78.8760 193° South 161 185 11,900  Level FlightAware
10:35AM 37.4820 -78.8820 192° South 161 185 11,900  Level FlightAware
10:35AM 37.4580 -78.8880 191° South 161 185 11,900  Level FlightAware
10:36AM 37.4017 -78.9042 191° South 164 189 12,000  Climbing Washington Center
10:37AM 37.3661 -78.9131 191° South 164 189 12,000  Level Washington Center
10:38AM 37.3133 -78.9292 194° South 164 189 12,000  Level Washington Center
10:39AM 37.2672 -78.9403 191° South 164 189 12,000  Level Washington Center
10:40AM 37.2272 -78.9489 190° South 164 189 12,000  Level Washington Center
10:41AM 37.1831 -78.9625 194° South 164 189 12,000  Level Washington Center
10:42AM 37.1475 -78.9714 191° South 164 189 12,000  Level Washington Center
10:43AM 37.0928 -78.9872 193° South 164 189 12,000  Level Washington Center
10:44AM 37.0422 -78.9981 190° South 164 189 12,000  Level Washington Center
10:45AM 36.9961 -79.0117 193° South 164 189 12,000  Level Washington Center
10:46AM 36.9519 -79.0225 191° South 164 189 12,000  Level Washington Center
10:47AM 36.9056 -79.0361 193° South 164 189 12,000  Level Washington Center
10:48AM 36.8656 -79.0475 193° South 164 189 12,000  Level Washington Center
10:49AM 36.8217 -79.0583 191° South 164 189 12,000  Level Washington Center
10:50AM 36.7753 -79.0692 191° South 164 189 12,000  Level Washington Center
10:51AM 36.7292 -79.0828 193° South 164 189 12,000  Level Washington Center
10:52AM 36.6786 -79.0933 190° South 169 194 12,000  Level Washington Center
10:53AM 36.6364 -79.1097 197° South 169 194 12,000  Level Washington Center
10:54AM 36.5922 -79.1206 191° South 169 194 12,000  Level Washington Center
10:55AM 36.5439 -79.1314 190° South 163 188 12,000  Level Washington Center
10:56AM 36.5019 -79.1422 192° South 163 188 12,000  Level Washington Center
10:57AM 36.4556 -79.1558 193° South 163 188 12,000  Level Washington Center
10:58AM 36.4050 -79.1714 194° South 168 193 12,000  Level Washington Center
10:59AM 36.3608 -79.1822 191° South 171 197 12,000  Level Washington Center
11:01AM 36.3061 -79.1978 193° South 168 193 12,000  Level Washington Center
11:02AM 36.2578 -79.2111 193° South 170 196 12,000 -60 Level Washington Center
11:07AM 36.1280 -79.2380 193° South 11,900 -60 Descending FlightAware
11:07AM 36.1070 -79.2440 193° South 171 197 11,900  Level FlightAware
11:08AM 36.0830 -79.2500 191° South 171 197 11,900  Level FlightAware
11:09AM 36.0590 -79.2560 191° South 171 197 11,900  Level FlightAware
11:10AM 35.9950 -79.2720 191° South 257 296 11,900  Level FlightAware
11:11AM 35.9580 -79.2820 192° South 167 192 11,900  Level FlightAware
11:11AM 35.9220 -79.2920 193° South 167 192 11,900  Level FlightAware
11:12AM 35.8770 -79.3030 191° South 167 192 11,900  Level FlightAware
11:13AM 35.8370 -79.3130 191° South 168 193 11,900  Level FlightAware
11:13AM 35.8060 -79.3210 192° South 168 193 11,900 60 Level FlightAware
11:14AM 35.6775 -79.3533 192° South 177 204 12,000  Climbing Washington Center
11:15AM 35.6356 -79.3642 192° South 177 204 12,000  Level Washington Center
11:16AM 35.5850 -79.3772 192° South 177 204 12,000 -60 Level Washington Center
11:17AM 35.5406 -79.3928 196° South 177 204 11,900 -60 Descending Washington Center
11:18AM 35.4986 -79.4036 192° South 177 204 11,900  Level Washington Center
11:19AM 35.4567 -79.4144 192° South 177 204 11,900  Level Washington Center
11:20AM 35.3997 -79.4269 190° South 177 204 11,900  Level Washington Center
11:21AM 35.3536 -79.4375 191° South 171 197 11,900  Level Washington Center
11:27AM 35.0820 -79.5000 191° South 167 192 11,900  Level FlightAware
11:28AM 35.0550 -79.4930 168° South 167 192 11,900  Level FlightAware
11:28AM 35.0320 -79.4870 168° South 167 192 11,900  Level FlightAware
11:29AM 34.9940 -79.4730 163° South 168 193 11,900  Level FlightAware
11:30AM 34.9630 -79.4620 164° South 168 193 11,900  Level FlightAware
11:30AM 34.9400 -79.4540 164° South 168 193 11,900 120 Level FlightAware
11:31AM 34.9047 -79.4439 164° South 161 185 12,100 60 Climbing Washington Center
11:32AM 34.8550 -79.4289 166° South 161 185 12,100  Level Washington Center
11:33AM 34.8139 -79.4144 164° South 161 185 12,100  Level Washington Center
11:34AM 34.7664 -79.4019 168° South 161 185 12,100  Level Washington Center
11:35AM 34.7272 -79.3875 163° South 161 185 12,100 -60 Level Washington Center
11:37AM 34.6422 -79.3597 165° South 157 181 12,000 -60 Descending Jacksonville Center
11:38AM 34.6022 -79.3436 162° South 162 186 12,000 -60 Level Jacksonville Center
11:44AM 34.3360 -79.2610 162° South 162 186 11,900 -60 Descending FlightAware
11:45AM 34.3140 -79.2550 167° South 162 186 11,900  Level FlightAware
11:45AM 34.2910 -79.2490 168° South 162 186 11,900  Level FlightAware
11:46AM 34.2690 -79.2440 169° South 162 186 11,900  Level FlightAware
11:46AM 34.2450 -79.3010 243° Southwest 155 178 11,900  Level FlightAware
11:47AM 34.2210 -79.3140 204° Southwest 159 183 11,900  Level FlightAware
11:48AM 34.1950 -79.3290 206° Southwest 159 183 11,900  Level FlightAware
11:48AM 34.1630 -79.3470 205° Southwest 159 183 11,900  Level FlightAware
11:49AM 34.1400 -79.3600 205° Southwest 159 183 11,900  Level FlightAware
11:50AM 34.1140 -79.3740 204° Southwest 162 186 11,900  Level FlightAware
11:50AM 34.0940 -79.3850 204° Southwest 162 186 11,900  Level FlightAware
11:51AM 34.0670 -79.4000 205° Southwest 162 186 11,900  Level FlightAware
11:51AM 34.0440 -79.4130 205° Southwest 161 185 11,900  Level FlightAware
11:52AM 34.0210 -79.4260 205° Southwest 162 186 11,900  Level FlightAware
11:52AM 33.9950 -79.4400 204° Southwest 163 188 11,900 -300 Level FlightAware
11:53AM 33.9700 -79.4540 205° Southwest 179 206 11,600 -540 Descending FlightAware
11:54AM 33.9440 -79.4690 206° Southwest 189 217 11,300 -540 Descending FlightAware
11:54AM 33.9150 -79.4850 205° Southwest 192 221 11,000 -360 Descending FlightAware
11:55AM 33.8820 -79.5030 204° Southwest 187 215 10,900 -120 Descending FlightAware
11:55AM 33.8590 -79.5160 205° Southwest 180 207 10,900  Level FlightAware
11:56AM 33.8320 -79.5300 203° Southwest 179 206 10,900  Level FlightAware
11:57AM 33.8060 -79.5450 206° Southwest 179 206 10,900 -120 Level FlightAware
11:57AM 33.7790 -79.5600 205° Southwest 186 214 10,800 -480 Descending FlightAware
11:58AM 33.7510 -79.5750 204° Southwest 196 226 10,400 -660 Descending FlightAware
11:58AM 33.7170 -79.5940 205° Southwest 200 230 10,000 -540 Descending FlightAware
11:58AM 33.7140 -79.5960 209° Southwest 200 230 10,000 -600 Level FlightAware
11:59AM 33.6950 -79.6060 204° Southwest 199 229 9,700 -720 Descending FlightAware
11:59AM 33.6760 -79.6170 206° Southwest 199 229 9,500 -540 Descending FlightAware
11:59AM 33.6630 -79.6240 204° Southwest 199 229 9,400 -120 Descending FlightAware
12:01PM 33.5790 -79.6690 204° Southwest 199 229 9,300 -600 Descending FlightAware
12:02PM 33.5470 -79.6870 205° Southwest 194 223 8,000 -1,500 Descending FlightAware
12:03PM 33.5190 -79.7020 204° Southwest 190 219 7,600 -780 Descending FlightAware
12:03PM 33.4910 -79.7180 205° Southwest 187 215 7,300 -720 Descending FlightAware
12:03PM 33.4720 -79.7280 204° Southwest 187 215 7,000 -720 Descending FlightAware
12:04PM 33.4560 -79.7370 205° Southwest 184 212 6,800 -600 Descending FlightAware
12:04PM 33.4400 -79.7450 203° Southwest 182 209 6,600 -540 Descending FlightAware
12:04PM 33.4300 -79.7510 207° Southwest 182 209 6,500 -540 Descending FlightAware
12:05PM 33.4010 -79.7670 205° Southwest 180 207 6,100 -480 Descending FlightAware
12:06PM 33.3710 -79.7830 204° Southwest 172 198 5,900 -300 Descending FlightAware
12:06PM 33.3580 -79.7900 204° Southwest 165 190 5,900  Level FlightAware
12:06PM 33.3430 -79.7980 204° Southwest 162 186 5,900  Level FlightAware
12:06PM 33.3330 -79.8030 203° Southwest 160 184 5,900 -360 Level FlightAware
12:07PM 33.3200 -79.8110 207° Southwest 170 196 5,700 -780 Descending FlightAware
12:07PM 33.3060 -79.8180 203° Southwest 181 208 5,400 -840 Descending FlightAware
12:07PM 33.2970 -79.8230 205° Southwest 184 212 5,300 -960 Descending FlightAware
12:08PM 33.2700 -79.8380 205° Southwest 188 216 4,700 -1,080 Descending FlightAware
12:08PM 33.2600 -79.8430 203° Southwest 187 215 4,500 -900 Descending FlightAware
12:08PM 33.2430 -79.8520 204° Southwest 185 213 4,200 -360 Descending FlightAware
12:09PM 33.2260 -79.8610 204° Southwest 185 213 4,200  Level FlightAware
12:12PM 33.1162 -79.9128 206° Southwest  Level FlightAware Approximate
12:13PM 33.0760 -79.9363 206° Southwest  Level FlightAware Approximate
12:14PM 33.0357 -79.9598 206° Southwest  Level FlightAware Approximate
12:15PM 32.9955 -79.9832 206° Southwest  Level FlightAware Approximate
12:16PM 32.9546 -80.0048 199° South  Level FlightAware Approximate
12:17PM 32.9122 -80.0218 199° South  Level FlightAware Approximate
12:18PM 32.8986 -80.0405 199° South  Level Estimated
12:19PM 32.8986 -80.0405 199° South  Level Estimated
12:20PM 32.8986 -80.0405 199° South  Level Estimated
12:21PM 32.8986 -80.0405 199° South  Level Estimated
12:22PM 32.8986 -80.0405 199° South  Level Estimated
12:23PM 32.8986 -80.0405 199° South  Level Estimated
12:24PM 32.8986 -80.0405 199° South  Level Estimated
12:25PM 32.8986 -80.0405 199° South  Level Estimated
12:26PM 32.8986 -80.0405 199° South  Level Estimated
12:27PM 32.8986 -80.0405 199° South  Level Estimated